createdAt,value
2018-08-25T00:00:16.200Z,11.40
2018-08-25T00:02:43.644Z,11.50
2018-08-25T00:05:11.177Z,11.40
2018-08-25T00:07:38.646Z,11.40
2018-08-25T00:10:07.103Z,11.40
2018-08-25T00:12:34.559Z,11.40
2018-08-25T00:15:02.015Z,11.40
2018-08-25T00:17:29.480Z,11.40
2018-08-25T00:19:56.976Z,11.40
2018-08-25T00:22:24.493Z,11.40
2018-08-25T00:24:51.937Z,11.40
2018-08-25T00:27:19.375Z,11.40
2018-08-25T00:29:46.848Z,11.40
2018-08-25T00:32:14.302Z,11.40
2018-08-25T00:34:41.753Z,11.30
2018-08-25T00:37:09.264Z,11.40
2018-08-25T00:39:36.719Z,11.40
2018-08-25T00:42:04.196Z,11.50
2018-08-25T00:44:31.654Z,11.50
2018-08-25T00:46:59.108Z,11.60
2018-08-25T00:49:26.557Z,11.60
2018-08-25T00:51:54.084Z,11.60
2018-08-25T00:54:21.524Z,11.70
2018-08-25T00:56:48.975Z,11.60
2018-08-25T00:59:16.549Z,11.60
2018-08-25T01:01:43.927Z,11.60
2018-08-25T01:04:11.345Z,11.60
2018-08-25T01:06:39.128Z,11.70
2018-08-25T01:09:08.010Z,11.60
2018-08-25T01:11:35.600Z,11.50
2018-08-25T01:14:03.113Z,11.50
2018-08-25T01:16:30.709Z,11.50
2018-08-25T01:18:58.160Z,11.50
2018-08-25T01:21:25.596Z,11.50
2018-08-25T01:23:53.026Z,11.50
2018-08-25T01:26:20.469Z,11.40
2018-08-25T01:28:47.891Z,11.40
2018-08-25T01:31:15.356Z,11.40
2018-08-25T01:33:42.815Z,11.40
2018-08-25T01:36:10.263Z,11.50
2018-08-25T01:38:38.005Z,11.50
2018-08-25T01:41:05.487Z,11.50
2018-08-25T01:43:32.951Z,11.50
2018-08-25T01:46:01.229Z,11.40
2018-08-25T01:48:28.728Z,11.40
2018-08-25T01:50:56.186Z,11.40
2018-08-25T01:53:23.600Z,11.30
2018-08-25T01:55:51.074Z,11.30
2018-08-25T01:58:18.567Z,11.20
2018-08-25T02:00:46.001Z,11.20
2018-08-25T02:03:13.527Z,11.20
2018-08-25T02:05:40.988Z,11.20
2018-08-25T02:08:08.467Z,11.20
2018-08-25T02:10:35.899Z,11.20
2018-08-25T02:13:03.373Z,11.20
2018-08-25T02:15:30.812Z,11.10
2018-08-25T02:17:58.289Z,11.00
2018-08-25T02:20:26.008Z,11.00
2018-08-25T02:22:53.449Z,11.00
2018-08-25T02:25:20.996Z,10.90
2018-08-25T02:27:48.423Z,10.90
2018-08-25T02:30:15.937Z,10.90
2018-08-25T02:32:43.385Z,10.90
2018-08-25T02:35:10.820Z,10.90
2018-08-25T02:37:38.282Z,10.90
2018-08-25T02:40:05.939Z,10.90
2018-08-25T02:42:34.076Z,10.90
2018-08-25T02:45:01.539Z,10.90
2018-08-25T02:47:28.994Z,10.90
2018-08-25T02:49:56.436Z,11.00
2018-08-25T02:52:23.893Z,11.00
2018-08-25T02:54:51.349Z,11.00
2018-08-25T02:57:18.825Z,11.00
2018-08-25T02:59:46.247Z,11.00
2018-08-25T03:02:13.703Z,11.10
2018-08-25T03:04:41.130Z,11.10
2018-08-25T03:07:08.615Z,11.10
2018-08-25T03:09:36.060Z,11.20
2018-08-25T03:12:03.577Z,11.10
2018-08-25T03:14:31.129Z,11.00
2018-08-25T03:16:58.559Z,11.00
2018-08-25T03:19:25.996Z,10.90
2018-08-25T03:21:53.442Z,11.00
2018-08-25T03:24:21.131Z,10.90
2018-08-25T03:26:48.885Z,10.90
2018-08-25T03:29:16.456Z,11.00
2018-08-25T03:31:43.925Z,11.00
2018-08-25T03:34:11.820Z,11.00
2018-08-25T03:36:39.795Z,11.00
2018-08-25T03:39:08.684Z,11.00
2018-08-25T03:41:36.196Z,11.00
2018-08-25T03:44:03.664Z,11.10
2018-08-25T03:46:31.121Z,11.10
2018-08-25T03:48:58.551Z,11.10
2018-08-25T03:51:26.021Z,11.00
2018-08-25T03:53:53.437Z,11.00
2018-08-25T03:56:20.893Z,10.90
2018-08-25T03:58:48.343Z,10.90
2018-08-25T04:01:15.847Z,10.90
2018-08-25T04:03:43.319Z,10.90
2018-08-25T04:06:10.799Z,10.90
2018-08-25T04:08:38.708Z,10.90
2018-08-25T04:11:06.196Z,10.80
2018-08-25T04:13:33.636Z,10.90
2018-08-25T04:16:01.142Z,10.90
2018-08-25T04:18:28.580Z,10.90
2018-08-25T04:20:56.012Z,11.00
2018-08-25T04:23:23.497Z,11.00
2018-08-25T04:25:50.943Z,11.00
2018-08-25T04:28:18.395Z,11.00
2018-08-25T04:30:45.842Z,11.00
2018-08-25T04:33:13.276Z,10.90
2018-08-25T04:35:40.757Z,11.00
2018-08-25T04:38:08.188Z,11.00
2018-08-25T04:40:35.647Z,11.00
2018-08-25T04:43:03.159Z,11.00
2018-08-25T04:45:30.628Z,11.00
2018-08-25T04:47:58.503Z,11.00
2018-08-25T04:50:25.934Z,11.10
2018-08-25T04:52:53.391Z,11.20
2018-08-25T04:55:20.816Z,11.20
2018-08-25T04:57:48.255Z,11.20
2018-08-25T05:00:15.720Z,11.30
2018-08-25T05:02:43.256Z,11.30
2018-08-25T05:05:10.740Z,11.30
2018-08-25T05:07:47.804Z,11.30
2018-08-25T05:10:18.415Z,11.40
2018-08-25T05:12:46.267Z,11.40
2018-08-25T05:15:13.818Z,11.40
2018-08-25T05:17:41.271Z,11.40
2018-08-25T05:20:08.733Z,11.40
2018-08-25T05:22:36.203Z,11.50
2018-08-25T05:25:03.781Z,11.40
2018-08-25T05:27:31.420Z,11.40
2018-08-25T05:29:58.923Z,11.40
2018-08-25T05:32:26.447Z,11.50
2018-08-25T05:34:53.943Z,11.50
2018-08-25T05:37:21.429Z,11.50
2018-08-25T05:39:49.756Z,11.50
2018-08-25T05:42:17.436Z,11.60
2018-08-25T05:44:44.966Z,11.60
2018-08-25T05:47:12.513Z,11.60
2018-08-25T05:49:40.067Z,11.60
2018-08-25T05:52:07.599Z,11.50
2018-08-25T05:54:35.037Z,11.50
2018-08-25T05:57:02.494Z,11.50
2018-08-25T05:59:30.024Z,11.50
2018-08-25T06:01:57.489Z,11.40
2018-08-25T06:04:24.912Z,11.50
2018-08-25T06:06:52.451Z,11.50
2018-08-25T06:09:19.904Z,11.60
2018-08-25T06:11:47.359Z,11.60
2018-08-25T06:14:14.825Z,11.60
2018-08-25T06:16:42.403Z,11.60
2018-08-25T06:19:10.435Z,11.60
2018-08-25T06:21:37.996Z,11.60
2018-08-25T06:24:05.500Z,11.60
2018-08-25T06:26:33.062Z,11.60
2018-08-25T06:29:00.696Z,11.70
2018-08-25T06:31:28.348Z,11.70
2018-08-25T06:33:55.967Z,11.70
2018-08-25T06:36:23.629Z,11.70
2018-08-25T06:38:51.245Z,11.70
2018-08-25T06:41:18.822Z,11.70
2018-08-25T06:43:46.304Z,11.80
2018-08-25T06:46:13.820Z,11.80
2018-08-25T06:48:41.691Z,11.80
2018-08-25T06:51:09.217Z,12.00
2018-08-25T06:53:37.105Z,12.00
2018-08-25T06:56:04.946Z,12.00
2018-08-25T06:58:32.501Z,11.90
2018-08-25T07:01:00.739Z,12.00
2018-08-25T07:04:00.738Z,11.90
2018-08-25T07:06:41.073Z,11.90
2018-08-25T07:09:11.186Z,11.80
2018-08-25T07:11:39.280Z,11.80
2018-08-25T07:14:07.480Z,11.80
2018-08-25T07:16:35.500Z,11.90
2018-08-25T07:19:03.371Z,11.90
2018-08-25T07:21:31.118Z,11.90
2018-08-25T07:24:03.872Z,12.00
2018-08-25T07:26:31.890Z,12.00
2018-08-25T07:28:59.797Z,12.00
2018-08-25T07:31:28.140Z,12.10
2018-08-25T07:33:56.594Z,12.10
2018-08-25T07:36:24.793Z,12.10
2018-08-25T07:38:52.576Z,12.10
2018-08-25T07:41:20.317Z,12.00
2018-08-25T07:43:48.421Z,12.00
2018-08-25T07:46:16.398Z,12.00
2018-08-25T07:48:44.356Z,12.00
2018-08-25T07:51:12.095Z,11.80
2018-08-25T07:53:39.985Z,11.80
2018-08-25T07:56:08.059Z,11.80
2018-08-25T07:58:36.114Z,11.70
2018-08-25T08:01:03.712Z,11.80
2018-08-25T08:03:31.494Z,11.80
2018-08-25T08:05:59.273Z,11.80
2018-08-25T08:08:26.995Z,11.80
2018-08-25T08:10:55.116Z,11.80
2018-08-25T08:13:23.007Z,11.90
2018-08-25T08:15:50.837Z,11.90
2018-08-25T08:18:18.620Z,11.80
2018-08-25T08:20:46.364Z,11.90
2018-08-25T08:23:14.071Z,11.90
2018-08-25T08:25:41.818Z,12.00
2018-08-25T08:28:10.191Z,12.00
2018-08-25T08:30:38.287Z,12.00
2018-08-25T08:33:06.242Z,12.00
2018-08-25T08:35:34.425Z,12.00
2018-08-25T08:38:02.439Z,11.90
2018-08-25T08:40:30.216Z,11.90
2018-08-25T08:42:58.514Z,11.90
2018-08-25T08:45:26.450Z,11.90
2018-08-25T08:47:55.189Z,12.00
2018-08-25T08:50:23.068Z,12.10
2018-08-25T08:52:50.765Z,12.10
2018-08-25T08:55:18.684Z,12.10
2018-08-25T08:57:47.476Z,12.00
2018-08-25T09:00:15.586Z,12.00
2018-08-25T09:02:43.556Z,12.00
2018-08-25T09:05:11.365Z,12.00
2018-08-25T09:07:39.280Z,12.00
2018-08-25T09:10:07.083Z,12.00
2018-08-25T09:12:34.978Z,11.90
2018-08-25T09:15:03.261Z,11.90
2018-08-25T09:17:31.079Z,12.00
2018-08-25T09:19:59.679Z,12.10
2018-08-25T09:22:27.602Z,12.10
2018-08-25T09:24:55.844Z,12.10
2018-08-25T09:27:23.683Z,12.20
2018-08-25T09:29:51.597Z,12.20
2018-08-25T09:32:19.269Z,12.20
2018-08-25T09:34:47.253Z,12.10
2018-08-25T09:37:15.196Z,12.20
2018-08-25T09:39:42.859Z,12.10
2018-08-25T09:42:11.203Z,12.10
2018-08-25T09:44:39.194Z,12.10
2018-08-25T09:47:06.794Z,12.10
2018-08-25T09:49:34.483Z,12.20
2018-08-25T09:52:02.654Z,12.30
2018-08-25T09:54:30.439Z,12.40
2018-08-25T09:56:59.515Z,12.60
2018-08-25T09:59:29.625Z,12.70
2018-08-25T10:01:59.426Z,12.80
2018-08-25T10:04:27.458Z,13.10
2018-08-25T10:06:55.576Z,13.20
2018-08-25T10:09:23.540Z,13.20
2018-08-25T10:11:51.524Z,13.10
2018-08-25T10:14:19.357Z,13.00
2018-08-25T10:16:47.187Z,13.00
2018-08-25T10:19:15.043Z,13.00
2018-08-25T10:21:42.791Z,13.20
2018-08-25T10:24:10.842Z,13.30
2018-08-25T10:26:38.596Z,13.40
2018-08-25T10:29:06.590Z,13.40
2018-08-25T10:31:34.364Z,13.40
2018-08-25T10:34:01.912Z,13.40
2018-08-25T10:36:29.727Z,13.50
2018-08-25T10:38:58.357Z,13.70
2018-08-25T10:41:26.296Z,13.70
2018-08-25T10:43:54.174Z,13.70
2018-08-25T10:46:22.097Z,13.60
2018-08-25T10:48:50.232Z,13.40
2018-08-25T10:51:18.305Z,13.50
2018-08-25T10:53:52.918Z,13.50
2018-08-25T10:56:20.826Z,13.50
2018-08-25T10:58:48.409Z,13.60
2018-08-25T11:01:16.003Z,13.60
2018-08-25T11:03:46.797Z,13.50
2018-08-25T11:06:39.305Z,13.40
2018-08-25T11:13:19.677Z,13.70
2018-08-25T11:15:48.923Z,14.00
2018-08-25T11:18:21.021Z,14.30
2018-08-25T11:20:48.802Z,14.40
2018-08-25T11:23:17.056Z,14.20
2018-08-25T11:25:52.446Z,14.10
2018-08-25T11:28:40.448Z,14.30
2018-08-25T11:31:20.911Z,14.40
2018-08-25T11:33:56.652Z,14.40
2018-08-25T11:36:24.408Z,14.60
2018-08-25T11:38:52.108Z,14.80
2018-08-25T11:41:19.804Z,14.90
2018-08-25T11:43:48.480Z,15.10
2018-08-25T11:46:16.784Z,15.20
2018-08-25T11:48:44.443Z,15.20
2018-08-25T11:51:12.063Z,15.10
2018-08-25T11:53:39.939Z,15.10
2018-08-25T11:56:07.581Z,15.20
2018-08-25T11:58:35.433Z,15.30
2018-08-25T12:01:03.344Z,15.40
2018-08-25T12:03:31.335Z,15.30
2018-08-25T12:05:59.115Z,15.20
2018-08-25T12:08:27.988Z,14.90
2018-08-25T12:10:56.043Z,14.80
2018-08-25T12:13:23.621Z,14.70
2018-08-25T12:15:54.901Z,14.60
2018-08-25T12:18:23.712Z,14.60
2018-08-25T12:20:51.545Z,14.70
2018-08-25T12:23:19.791Z,14.70
2018-08-25T12:25:47.720Z,14.70
2018-08-25T12:28:15.566Z,14.80
2018-08-25T12:30:43.327Z,15.00
2018-08-25T12:33:11.319Z,15.30
2018-08-25T12:35:39.137Z,15.70
2018-08-25T12:38:06.851Z,15.80
2018-08-25T12:40:34.968Z,15.90
2018-08-25T12:43:02.768Z,16.00
2018-08-25T12:45:30.279Z,16.00
2018-08-25T12:47:58.876Z,15.90
2018-08-25T12:50:27.239Z,15.90
2018-08-25T12:52:54.895Z,15.90
2018-08-25T12:55:23.278Z,16.10
2018-08-25T12:57:55.474Z,16.10
2018-08-25T13:00:23.590Z,16.10
2018-08-25T13:02:51.404Z,16.20
2018-08-25T13:05:19.482Z,16.30
2018-08-25T13:07:47.640Z,16.50
2018-08-25T13:10:16.093Z,16.50
2018-08-25T13:12:44.140Z,16.40
2018-08-25T13:15:11.984Z,16.20
2018-08-25T13:17:39.636Z,16.10
2018-08-25T13:20:07.731Z,16.00
2018-08-25T13:22:35.227Z,15.80
2018-08-25T13:25:03.316Z,15.60
2018-08-25T13:27:30.690Z,15.60
2018-08-25T13:29:58.121Z,15.40
2018-08-25T13:32:25.583Z,15.20
2018-08-25T13:34:53.045Z,15.10
2018-08-25T13:37:20.755Z,14.80
2018-08-25T13:39:48.353Z,14.70
2018-08-25T13:42:15.837Z,14.60
2018-08-25T13:44:43.327Z,14.60
2018-08-25T13:47:10.775Z,14.50
2018-08-25T13:49:38.276Z,14.70
2018-08-25T13:52:05.801Z,14.70
2018-08-25T13:54:38.834Z,14.80
2018-08-25T13:57:06.393Z,14.90
2018-08-25T13:59:33.811Z,15.20
2018-08-25T14:02:01.298Z,15.30
2018-08-25T14:04:28.763Z,15.50
2018-08-25T14:06:56.632Z,15.50
2018-08-25T14:09:24.571Z,15.60
2018-08-25T14:11:52.011Z,15.70
2018-08-25T14:14:19.448Z,15.60
2018-08-25T14:16:46.948Z,15.60
2018-08-25T14:19:14.384Z,15.60
2018-08-25T14:21:42.309Z,15.60
2018-08-25T14:24:09.746Z,15.60
2018-08-25T14:26:37.288Z,15.60
2018-08-25T14:29:04.902Z,15.70
2018-08-25T14:31:32.324Z,15.80
2018-08-25T14:33:59.823Z,15.80
2018-08-25T14:36:27.284Z,15.80
2018-08-25T14:38:54.810Z,15.80
2018-08-25T14:41:22.249Z,15.70
2018-08-25T14:43:50.276Z,15.60
2018-08-25T14:46:17.687Z,15.50
2018-08-25T14:48:45.288Z,15.60
2018-08-25T14:51:12.948Z,15.90
2018-08-25T14:53:40.408Z,16.10
2018-08-25T14:56:07.828Z,16.30
2018-08-25T14:58:35.263Z,16.40
2018-08-25T15:01:02.699Z,16.50
2018-08-25T15:03:30.124Z,16.40
2018-08-25T15:05:57.584Z,16.40
2018-08-25T15:08:25.052Z,16.40
2018-08-25T15:10:52.958Z,16.40
2018-08-25T15:13:20.431Z,16.20
2018-08-25T15:15:47.788Z,16.10
2018-08-25T15:18:15.599Z,15.90
2018-08-25T15:20:44.080Z,15.80
2018-08-25T15:23:11.610Z,15.70
2018-08-25T15:25:39.120Z,15.70
2018-08-25T15:28:06.645Z,15.60
2018-08-25T15:30:34.189Z,15.60
2018-08-25T15:33:01.662Z,15.60
2018-08-25T15:35:29.089Z,15.70
2018-08-25T15:37:56.585Z,15.80
2018-08-25T15:40:24.082Z,15.90
2018-08-25T15:42:51.571Z,16.00
2018-08-25T15:45:19.162Z,16.10
2018-08-25T15:47:46.657Z,16.10
2018-08-25T15:50:14.379Z,16.10
2018-08-25T15:52:41.856Z,16.10
2018-08-25T15:55:09.370Z,16.10
2018-08-25T15:57:36.799Z,16.10
2018-08-25T16:00:04.375Z,16.20
2018-08-25T16:02:31.854Z,16.20
2018-08-25T16:05:41.961Z,16.20
2018-08-25T16:08:09.417Z,16.50
2018-08-25T16:10:36.824Z,16.40
2018-08-25T16:13:04.342Z,16.30
2018-08-25T16:15:31.836Z,16.20
2018-08-25T16:17:59.346Z,16.10
2018-08-25T16:20:26.915Z,16.00
2018-08-25T16:22:54.368Z,15.90
2018-08-25T16:25:22.216Z,15.80
2018-08-25T16:27:49.810Z,15.70
2018-08-25T16:30:17.305Z,15.60
2018-08-25T16:32:45.791Z,15.50
2018-08-25T16:35:13.350Z,15.40
2018-08-25T16:37:40.808Z,15.40
2018-08-25T16:40:08.340Z,15.40
2018-08-25T16:42:35.863Z,15.30
2018-08-25T16:45:03.397Z,15.30
2018-08-25T16:47:30.909Z,15.30
2018-08-25T16:49:58.430Z,15.20
2018-08-25T16:52:25.995Z,15.10
2018-08-25T16:54:53.514Z,15.20
2018-08-25T16:57:20.944Z,15.20
2018-08-25T16:59:48.411Z,15.30
2018-08-25T17:02:15.840Z,15.40
2018-08-25T17:04:43.951Z,15.40
2018-08-25T17:07:11.364Z,15.40
2018-08-25T17:09:38.804Z,15.40
2018-08-25T17:12:06.300Z,15.30
2018-08-25T17:14:33.866Z,15.30
2018-08-25T17:17:01.461Z,15.20
2018-08-25T17:19:28.927Z,15.20
2018-08-25T17:21:56.392Z,15.10
2018-08-25T17:24:23.961Z,15.10
2018-08-25T17:26:51.863Z,15.00
2018-08-25T17:29:19.319Z,15.00
2018-08-25T17:31:46.747Z,14.90
2018-08-25T17:34:14.219Z,14.80
2018-08-25T17:36:41.789Z,14.80
2018-08-25T17:39:10.536Z,14.70
2018-08-25T17:41:38.254Z,14.50
2018-08-25T17:44:05.946Z,14.50
2018-08-25T17:46:33.970Z,14.40
2018-08-25T17:49:01.642Z,14.40
2018-08-25T17:51:29.219Z,14.40
2018-08-25T17:53:57.091Z,14.40
2018-08-25T17:56:24.563Z,14.30
2018-08-25T17:58:52.071Z,14.20
2018-08-25T18:01:19.602Z,14.20
2018-08-25T18:03:48.671Z,14.10
2018-08-25T18:06:16.331Z,14.20
2018-08-25T18:08:45.280Z,14.10
2018-08-25T18:11:13.573Z,14.10
2018-08-25T18:13:41.621Z,14.00
2018-08-25T18:16:12.893Z,14.10
2018-08-25T18:18:46.312Z,14.10
2018-08-25T18:21:16.005Z,14.10
2018-08-25T18:23:44.177Z,14.00
2018-08-25T18:26:14.200Z,13.90
2018-08-25T18:28:42.167Z,13.80
2018-08-25T18:31:10.384Z,13.80
2018-08-25T18:33:38.318Z,13.70
2018-08-25T18:36:10.989Z,13.70
2018-08-25T18:38:38.672Z,13.60
2018-08-25T18:41:06.185Z,13.50
2018-08-25T18:43:33.672Z,13.40
2018-08-25T18:46:01.437Z,13.40
2018-08-25T18:48:29.040Z,13.40
2018-08-25T18:50:56.564Z,13.40
2018-08-25T18:53:24.079Z,13.30
2018-08-25T18:55:51.540Z,13.20
2018-08-25T18:58:19.011Z,13.20
2018-08-25T19:00:46.556Z,13.20
2018-08-25T19:03:14.040Z,13.30
2018-08-25T19:05:41.771Z,13.30
2018-08-25T19:08:09.356Z,13.30
2018-08-25T19:10:36.903Z,13.30
2018-08-25T19:13:04.488Z,13.30
2018-08-25T19:15:31.988Z,13.30
2018-08-25T19:17:59.714Z,13.20
2018-08-25T19:20:27.384Z,13.30
2018-08-25T19:22:55.573Z,13.20
2018-08-25T19:25:23.184Z,13.20
2018-08-25T19:27:50.848Z,13.20
2018-08-25T19:30:18.309Z,13.20
2018-08-25T19:32:45.780Z,13.10
2018-08-25T19:35:13.257Z,13.10
2018-08-25T19:37:41.559Z,13.20
2018-08-25T19:40:10.516Z,13.10
2018-08-25T19:42:38.083Z,13.10
2018-08-25T19:45:05.749Z,13.10
2018-08-25T19:47:33.357Z,13.10
2018-08-25T19:50:00.931Z,13.10
2018-08-25T19:52:28.525Z,13.20
2018-08-25T19:54:56.369Z,13.20
2018-08-25T19:57:23.933Z,13.10
2018-08-25T19:59:51.520Z,13.20
2018-08-25T20:02:25.880Z,13.10
2018-08-25T20:04:53.386Z,13.10
2018-08-25T20:07:21.214Z,13.20
2018-08-25T20:09:48.752Z,13.10
2018-08-25T20:12:16.592Z,13.10
2018-08-25T20:14:44.344Z,13.00
2018-08-25T20:17:11.898Z,13.00
2018-08-25T20:19:39.364Z,13.00
2018-08-25T20:22:07.679Z,13.00
2018-08-25T20:24:35.264Z,13.00
2018-08-25T20:27:02.954Z,13.00
2018-08-25T20:29:30.445Z,12.90
2018-08-25T20:31:57.982Z,12.90
2018-08-25T20:34:25.773Z,12.90
2018-08-25T20:36:53.312Z,12.90
2018-08-25T20:39:20.926Z,12.90
2018-08-25T20:41:48.519Z,12.90
2018-08-25T20:44:16.388Z,12.90
2018-08-25T20:46:44.088Z,12.80
2018-08-25T20:49:11.972Z,12.80
2018-08-25T20:51:39.593Z,12.80
2018-08-25T20:54:07.780Z,12.80
2018-08-25T20:56:35.812Z,12.70
2018-08-25T20:59:03.917Z,12.70
2018-08-25T21:01:31.668Z,12.70
2018-08-25T21:03:59.646Z,12.70
2018-08-25T21:06:34.906Z,12.70
2018-08-25T21:09:04.459Z,12.70
2018-08-25T21:11:32.554Z,12.70
2018-08-25T21:14:00.592Z,12.70
2018-08-25T21:16:28.406Z,12.60
2018-08-25T21:18:59.140Z,12.60
2018-08-25T21:21:30.225Z,12.60
2018-08-25T21:23:58.894Z,12.60
2018-08-25T21:26:38.440Z,12.60
2018-08-25T21:29:10.351Z,12.60
2018-08-25T21:31:39.147Z,12.50
2018-08-25T21:34:07.833Z,12.50
2018-08-25T21:36:44.563Z,12.50
2018-08-25T21:39:22.878Z,12.50
2018-08-25T21:41:54.235Z,12.50
2018-08-25T21:44:24.910Z,12.50
2018-08-25T21:46:55.294Z,12.50
2018-08-25T21:49:23.998Z,12.50
2018-08-25T21:51:55.582Z,12.50
2018-08-25T21:54:25.650Z,12.40
2018-08-25T21:57:04.987Z,12.40
2018-08-25T21:59:33.162Z,12.40
2018-08-25T22:02:01.353Z,12.40
2018-08-25T22:04:38.435Z,12.30
2018-08-25T22:07:09.429Z,12.30
2018-08-25T22:09:49.368Z,12.30
2018-08-25T22:12:25.541Z,12.30
2018-08-25T22:15:00.908Z,12.30
2018-08-25T22:17:35.697Z,12.20
2018-08-25T22:20:11.077Z,12.20
2018-08-25T22:22:43.604Z,12.30
2018-08-25T22:25:13.633Z,12.30
2018-08-25T22:27:41.973Z,12.20
2018-08-25T22:30:11.446Z,12.20
2018-08-25T22:32:44.158Z,12.20
2018-08-25T22:35:16.368Z,12.20
2018-08-25T22:37:45.477Z,12.10
2018-08-25T22:40:13.439Z,12.10
2018-08-25T22:42:41.214Z,12.10
2018-08-25T22:45:09.018Z,12.10
2018-08-25T22:47:39.097Z,12.10
2018-08-25T22:50:09.202Z,12.00
2018-08-25T22:52:44.895Z,12.10
2018-08-25T22:55:13.066Z,12.10
2018-08-25T22:57:41.763Z,12.00
2018-08-25T23:00:11.153Z,12.10
2018-08-25T23:02:41.820Z,12.00
2018-08-25T23:05:15.140Z,12.00
2018-08-25T23:07:43.270Z,12.00
2018-08-25T23:10:11.386Z,12.00
2018-08-25T23:12:39.409Z,11.90
2018-08-25T23:15:08.791Z,12.00
2018-08-25T23:17:36.710Z,12.00
2018-08-25T23:20:04.722Z,12.00
2018-08-25T23:22:32.966Z,12.00
2018-08-25T23:25:00.871Z,12.00
2018-08-25T23:27:29.003Z,11.90
2018-08-25T23:29:59.373Z,11.90
2018-08-25T23:32:27.100Z,11.90
2018-08-25T23:34:54.953Z,11.90
2018-08-25T23:37:22.872Z,11.90
2018-08-25T23:39:50.792Z,11.90
2018-08-25T23:42:18.890Z,11.90
2018-08-25T23:44:47.282Z,11.80
2018-08-25T23:47:15.164Z,11.80
2018-08-25T23:49:43.039Z,11.80
2018-08-25T23:52:10.864Z,11.80
2018-08-25T23:54:38.661Z,11.80
2018-08-25T23:57:06.497Z,11.80
2018-08-25T23:59:34.352Z,11.80
